LIVE Streaming HD
Get Adobe Flash player
Annunci di Google
SATELLITE
Annuci di Google
Dati meteo stazione (refresh automatico ogni minuto)
Ostia(RM) VENTO: VELOCITÀ   PIOGGIA: QTA GIORNO TEMPERATURA: ATTUALE
SPOT: Kursaal Lido Ostia ---- Posizione su Googlemap:Latitudine: 41.71N Longitudine: 12.31E RAFFICA MASSIMA: QTA MENSILE: MASSIMA:
VELOCITÀ MEDIA: QTA ANNUALE: MINIMA:
DIREZIONE: UMIDITÀ: WIND CHILL:
TIPO: DEW POINT:
BEAUFORT: PRESSIONE:
I nostri partner
Ostia(RM) nelle ultime ore
Applica filtri in visualizzazione Intervallo delle letture nelle ultime

Ora Direzione Vento Velocita' Vento Media Vento Raffica Max. Temperatura Wind Chill Pioggia Pressione
22:58:19103 °(ESE)0 Kts0 Kts17.76 Kts13.6 °C21.57 °C0 mm0 Hpa
22:53:1968 °(ENE)0 Kts0 Kts17.76 Kts14 °C21.82 °C0 mm0 Hpa
22:48:1998 °(E)0 Kts0 Kts17.76 Kts14.5 °C22.13 °C0 mm0 Hpa
22:43:2066 °(ENE)0 Kts0 Kts17.76 Kts15 °C22.44 °C0 mm0 Hpa
22:38:19355 °(N)0 Kts0 Kts17.76 Kts15.3 °C22.62 °C0 mm0 Hpa
22:33:250 °(N)0 Kts0 Kts17.76 Kts15.3 °C22.62 °C0 mm0 Hpa
22:28:20345 °(NNW)0 Kts0 Kts17.76 Kts15.3 °C22.62 °C0 mm0 Hpa
22:23:200 °(N)0 Kts0 Kts17.76 Kts15.5 °C22.75 °C0 mm0 Hpa
22:18:200 °(N)0 Kts0 Kts17.76 Kts15.6 °C22.81 °C0 mm0 Hpa
22:13:180 °(N)0 Kts0 Kts17.76 Kts15.6 °C22.81 °C0 mm0 Hpa
22:08:190 °(N)2.64 Kts0.68 Kts17.76 Kts15.8 °C16.4 °C0 mm0 Hpa
22:03:18291 °(WNW)0 Kts0 Kts17.76 Kts15.8 °C22.93 °C0 mm0 Hpa
21:58:30345 °(NNW)1.32 Kts1.6 Kts17.76 Kts16 °C17.28 °C0 mm0 Hpa
21:53:280 °(N)1.92 Kts3.32 Kts17.76 Kts16.2 °C17.15 °C0 mm0 Hpa
21:48:29357 °(N)3 Kts2.72 Kts17.76 Kts16.2 °C16.75 °C0 mm0 Hpa
21:43:440 °(N)0 Kts2.8 Kts17.76 Kts16.2 °C23.18 °C0 mm0 Hpa
21:38:43344 °(NNW)1.44 Kts4.8 Kts17.76 Kts16.3 °C17.56 °C0 mm0 Hpa
21:32:550 °(N)5.16 Kts4.6 Kts17.76 Kts16.3 °C16.24 °C0 mm0 Hpa
21:28:370 °(N)2.28 Kts2.64 Kts17.76 Kts16.3 °C17.11 °C0 mm0 Hpa
21:23:280 °(N)6.48 Kts3.4 Kts17.76 Kts16.5 °C16.28 °C0 mm0 Hpa
21:18:270 °(N)11.88 Kts8.84 Kts17.76 Kts16.6 °C15.63 °C0 mm0 Hpa
21:13:21324 °(NW)7.08 Kts8.56 Kts17.76 Kts16.6 °C16.25 °C0 mm0 Hpa
21:08:220 °(N)10.56 Kts7.96 Kts17.76 Kts16.7 °C15.95 °C0 mm0 Hpa
21:03:260 °(N)14.88 Kts12.12 Kts17.76 Kts16.7 °C15.52 °C0 mm0 Hpa